Flight Track Log - Related Links

Times and Time Zones

All times are in EDT time to prevent confusion due to time zone crossing. See the EGF2964 flight status page for this flight to view local times or setup timezone preferences in your user account.

Time Position Orientation Groundspeed Altitude Reporting Facility
EDT Latitude Longitude Course Direction KTS MPH feet Rate Location/Type
Sat 11:59:32 AM 33.9300 -81.1822 283° West  Level FlightAware Approximate
Sat 12:00:32 PM 33.8865 -81.2840 28° Northeast  Level FlightAware Approximate
Sat 12:01:32 PM 33.8667 -81.4003 59° Northeast  Level FlightAware Approximate
Sat 12:01:58 PM 33.9425 -81.2478 252° West 205 236 4,000  Level Jacksonville Center
Sat 12:05:16 PM 33.8725 -81.5094 254° West 260 299 10,300 1,837 Climbing Atlanta Center
Sat 12:06:16 PM 33.8494 -81.6050 252° West 280 322 11,900 1,600 Climbing Atlanta Center
Sat 12:07:16 PM 33.8222 -81.7058 253° West 306 352 13,500 1,700 Climbing Atlanta Center
Sat 12:08:16 PM 33.7950 -81.8117 254° West 323 372 15,300 1,750 Climbing Atlanta Center
Sat 12:09:16 PM 33.7697 -81.9147 252° West 323 372 17,000 1,700 Climbing Atlanta Center
Sat 12:10:16 PM 33.7419 -82.0153 254° West 323 372 18,700 1,600 Climbing Atlanta Center
Sat 12:11:16 PM 33.7167 -82.1233 261° West 328 377 20,200 1,933 Climbing Atlanta Center
Sat 12:13:16 PM 33.6867 -82.3486 263° West 323 372 24,500 1,833 Climbing Atlanta Center
Sat 12:14:16 PM 33.6756 -82.4511 259° West 323 372 25,700 1,150 Climbing Atlanta Center
Sat 12:15:16 PM 33.6561 -82.5664 265° West 331 381 26,800 1,050 Climbing Atlanta Center
Sat 12:16:16 PM 33.6469 -82.6814 260° West 352 405 27,800 1,000 Climbing Atlanta Center
Sat 12:17:16 PM 33.6294 -82.8014 262° West 364 419 28,800 1,000 Climbing Atlanta Center
Sat 12:18:16 PM 33.6158 -82.9236 262° West 376 433 29,800 1,000 Climbing Atlanta Center
Sat 12:19:16 PM 33.6003 -83.0511 262° West 376 433 30,800 950 Climbing Atlanta Center
Sat 12:20:16 PM 33.5867 -83.1636 262° West 386 444 31,700 950 Climbing Atlanta Center
Sat 12:21:16 PM 33.5708 -83.2958 261° West 397 457 32,700 1,000 Climbing Atlanta Center
Sat 12:22:16 PM 33.5528 -83.4281 261° West 402 463 33,700 1,000 Climbing Atlanta Center
Sat 12:23:16 PM 33.5344 -83.5603 261° West 409 471 34,700 1,000 Climbing Atlanta Center
Sat 12:24:16 PM 33.5161 -83.6975 262° West 409 471 35,700 650 Climbing Atlanta Center
Sat 12:25:16 PM 33.4997 -83.8319 261° West 414 476 36,000 150 Climbing Atlanta Center
Sat 12:26:16 PM 33.4792 -83.9864 262° West 420 483 36,000  Level Atlanta Center
Sat 12:27:16 PM 33.4622 -84.1258 260° West 430 495 36,000  Level Atlanta Center
Sat 12:28:16 PM 33.4433 -84.2603 261° West 418 481 36,000  Level Atlanta Center
Sat 12:29:16 PM 33.4264 -84.3947 260° West 418 481 36,000  Level Atlanta Center
Sat 12:30:16 PM 33.4072 -84.5292 260° West 418 481 36,000  Level Atlanta Center
Sat 12:31:16 PM 33.3878 -84.6658 263° West 418 481 36,000  Level Atlanta Center
Sat 12:32:16 PM 33.3744 -84.7900 259° West 418 481 36,000  Level Atlanta Center
Sat 12:33:16 PM 33.3528 -84.9267 261° West 418 481 36,000  Level Atlanta Center
Sat 12:34:16 PM 33.3350 -85.0633 261° West 418 481 36,000  Level Atlanta Center
Sat 12:35:16 PM 33.3172 -85.1972 260° West 413 475 36,000  Level Atlanta Center
Sat 12:36:16 PM 33.2969 -85.3386 261° West 426 490 36,000  Level Atlanta Center
Sat 12:37:16 PM 33.2764 -85.4875 261° West 426 490 36,000  Level Atlanta Center
Sat 12:38:16 PM 33.2581 -85.6236 260° West 420 483 36,000  Level Atlanta Center
Sat 12:39:16 PM 33.2375 -85.7625 259° West 420 483 36,000  Level Atlanta Center
Sat 12:40:16 PM 33.2144 -85.9011 260° West 428 493 36,000  Level Atlanta Center
Sat 12:41:16 PM 33.1958 -86.0322 260° West 428 493 36,000  Level Atlanta Center
Sat 12:42:16 PM 33.1747 -86.1681 262° West 421 484 36,000  Level Atlanta Center
Sat 12:43:16 PM 33.1575 -86.3092 264° West 421 484 36,000  Level Atlanta Center
Sat 12:44:16 PM 33.1444 -86.4453 264° West 421 484 36,000  Level Atlanta Center
Sat 12:45:16 PM 33.1336 -86.5767 263° West 414 476 36,000  Level Atlanta Center
Sat 12:46:16 PM 33.1203 -86.7125 265° West 409 471 36,000  Level Atlanta Center
Sat 12:47:16 PM 33.1114 -86.8314 262° West 409 471 36,000  Level Atlanta Center
Sat 12:48:16 PM 33.0958 -86.9647 262° West 409 471 36,000  Level Atlanta Center
Sat 12:49:16 PM 33.0797 -87.1081 264° West 409 471 36,000  Level Atlanta Center
Sat 12:50:16 PM 33.0681 -87.2364 264° West 404 465 36,000  Level Atlanta Center
Sat 12:51:16 PM 33.0564 -87.3697 263° West 404 465 36,000  Level Atlanta Center
Sat 12:52:16 PM 33.0422 -87.5031 264° West 404 465 36,000  Level Atlanta Center
Sat 12:53:16 PM 33.0325 -87.6217 263° West 409 471 36,000  Level Atlanta Center
Sat 12:54:29 PM 33.0131 -87.7981 263° West 409 471 36,000  Level Memphis Center
Sat 12:55:29 PM 33.0006 -87.9150 265° West 409 471 36,000  Level Memphis Center
Sat 12:56:29 PM 32.9889 -88.0589 263° West 409 471 36,000  Level Memphis Center
Sat 12:57:29 PM 32.9744 -88.1906 264° West 409 471 36,000  Level Memphis Center
Sat 12:58:29 PM 32.9642 -88.3169 262° West 409 471 36,000  Level Memphis Center
Sat 12:59:29 PM 32.9475 -88.4536 263° West 409 471 36,000  Level Memphis Center
Sat 01:00:29 PM 32.9347 -88.5800 263° West 404 465 36,000  Level Memphis Center
Sat 01:01:29 PM 32.9219 -88.7089 262° West 404 465 36,000  Level Memphis Center
Sat 01:02:29 PM 32.9069 -88.8381 263° West 404 465 36,000  Level Memphis Center
Sat 01:03:29 PM 32.8936 -88.9644 263° West 404 465 36,000  Level Memphis Center
Sat 01:04:29 PM 32.8806 -89.0908 262° West 398 458 36,000  Level Memphis Center
Sat 01:05:29 PM 32.8650 -89.2194 263° West 393 452 36,000  Level Memphis Center
Sat 01:06:29 PM 32.8514 -89.3458 262° West 393 452 36,000  Level Memphis Center
Sat 01:07:29 PM 32.8358 -89.4722 261° West 393 452 36,000  Level Memphis Center
Sat 01:08:29 PM 32.8200 -89.5958 261° West 393 452 36,000  Level Memphis Center
Sat 01:09:29 PM 32.8039 -89.7197 262° West 387 445 36,000  Level Memphis Center
Sat 01:10:29 PM 32.7878 -89.8508 263° West 392 451 36,000  Level Memphis Center
Sat 01:11:29 PM 32.7736 -89.9792 263° West 392 451 36,000  Level Memphis Center
Sat 01:12:29 PM 32.7614 -90.1053 261° West 392 451 36,000  Level Memphis Center
Sat 01:13:29 PM 32.7450 -90.2314 263° West 392 451 36,000  Level Memphis Center
Sat 01:14:29 PM 32.7325 -90.3547 262° West 392 451 36,000  Level Memphis Center
Sat 01:15:29 PM 32.7178 -90.4808 261° West 392 451 36,000  Level Memphis Center
Sat 01:16:29 PM 32.7008 -90.6042 262° West 392 451 36,000  Level Memphis Center
Sat 01:17:29 PM 32.6861 -90.7325 261° West 392 451 36,000  Level Memphis Center
Sat 01:18:29 PM 32.6689 -90.8558 263° West 392 451 36,000  Level Memphis Center
Sat 01:19:29 PM 32.6558 -90.9817 260° West 392 451 36,000 -50 Level Memphis Center
Sat 01:20:29 PM 32.6383 -91.1047 262° West 392 451 35,900 -517 Descending Memphis Center
Sat 01:22:58 PM 32.6006 -91.4119 261° West 408 470 34,200 -545 Descending Fort Worth Center
Sat 01:23:58 PM 32.5836 -91.5436 262° West 408 470 34,000 -100 Descending Fort Worth Center
Sat 01:24:58 PM 32.5689 -91.6728 259° West 408 470 34,000  Level Fort Worth Center
Sat 01:25:58 PM 32.5492 -91.7947 262° West 408 470 34,000  Level Fort Worth Center
Sat 01:26:58 PM 32.5325 -91.9336 261° West 390 449 34,000  Level Fort Worth Center
Sat 01:27:58 PM 32.5167 -92.0528 266° West 390 449 34,000  Level Fort Worth Center
Sat 01:28:58 PM 32.5092 -92.1714 266° West 379 436 34,000  Level Fort Worth Center
Sat 01:29:58 PM 32.5014 -92.2878 264° West 373 429 34,000  Level Fort Worth Center
Sat 01:30:58 PM 32.4917 -92.4064 268° West 373 429 34,000  Level Fort Worth Center
Sat 01:31:58 PM 32.4878 -92.5200 263° West 363 418 34,000  Level Fort Worth Center
Sat 01:32:58 PM 32.4756 -92.6389 265° West 363 418 34,000  Level Fort Worth Center
Sat 01:33:58 PM 32.4675 -92.7572 264° West 363 418 34,000  Level Fort Worth Center
Sat 01:34:58 PM 32.4575 -92.8786 264° West 369 425 34,000  Level Fort Worth Center
Sat 01:35:58 PM 32.4469 -92.9947 265° West 369 425 34,000  Level Fort Worth Center
Sat 01:36:58 PM 32.4386 -93.1181 264° West 369 425 34,000  Level Fort Worth Center
Sat 01:37:58 PM 32.4297 -93.2244 265° West 369 425 34,000  Level Fort Worth Center
Sat 01:38:58 PM 32.4211 -93.3478 264° West 369 425 34,000  Level Fort Worth Center
Sat 01:40:58 PM 32.3997 -93.5925 271° West 369 425 34,000  Level Fort Worth Center
Sat 01:41:58 PM 32.4011 -93.7106 272° West 369 425 34,000  Level Fort Worth Center
Sat 01:42:58 PM 32.4047 -93.8333 270° West 369 425 34,000  Level Fort Worth Center
Sat 01:43:58 PM 32.4039 -93.9539 272° West 369 425 34,000  Level Fort Worth Center
Sat 01:44:58 PM 32.4072 -94.0742 271° West 369 425 34,000  Level Fort Worth Center
Sat 01:45:58 PM 32.4083 -94.2022 272° West 369 425 34,000  Level Fort Worth Center
Sat 01:46:58 PM 32.4114 -94.3250 270° West 369 425 34,000  Level Fort Worth Center
Sat 01:47:58 PM 32.4122 -94.4481 270° West 374 430 34,000  Level Fort Worth Center
Sat 01:48:58 PM 32.4131 -94.5711 272° West 374 430 34,000  Level Fort Worth Center
Sat 01:49:58 PM 32.4158 -94.6942 264° West 374 430 34,000  Level Fort Worth Center
Sat 01:50:58 PM 32.4039 -94.8225 239° Southwest 386 444 34,000  Level Fort Worth Center
Sat 01:51:58 PM 32.3497 -94.9272 233° Southwest 367 422 34,000  Level Fort Worth Center
Sat 01:52:58 PM 32.2869 -95.0272 244° Southwest 373 429 34,000  Level Fort Worth Center
Sat 01:53:58 PM 32.2408 -95.1389 265° West 385 443 34,000  Level Fort Worth Center
Sat 01:54:58 PM 32.2306 -95.2644 268° West 380 437 34,000  Level Fort Worth Center
Sat 01:55:58 PM 32.2264 -95.3897 268° West 385 443 34,000  Level Fort Worth Center
Sat 01:56:58 PM 32.2219 -95.5128 266° West 385 443 34,000  Level Fort Worth Center
Sat 01:57:58 PM 32.2136 -95.6503 267° West 385 443 34,000  Level Fort Worth Center
Sat 01:58:58 PM 32.2089 -95.7756 269° West 385 443 34,000 -50 Level Fort Worth Center
Sat 01:59:58 PM 32.2064 -95.8986 291° West 385 443 33,900 -1,800 Descending Fort Worth Center
Sat 02:00:58 PM 32.2453 -96.0183 294° West 386 444 30,400 -3,650 Descending Fort Worth Center
Sat 02:01:58 PM 32.2858 -96.1267 289° West 412 474 26,600 -3,939 Descending FAA TRACON SMA TRACON (SMA)
Sat 02:02:37 PM 32.3122 -96.2156 291° West 412 474 23,900 -3,975 Descending FAA TRACON SMA TRACON (SMA)
Sat 02:03:18 PM 32.3400 -96.3022 290° West 409 471 21,300 -3,630 Descending FAA TRACON SMA TRACON (SMA)
Sat 02:03:58 PM 32.3639 -96.3786 296° West 400 460 19,000 -3,600 Descending FAA TRACON SMA TRACON (SMA)
Sat 02:04:38 PM 32.3967 -96.4581 314° West 392 451 16,500 -3,675 Descending FAA TRACON SMA TRACON (SMA)
Sat 02:05:18 PM 32.4475 -96.5214 315° West 381 438 14,100 -3,225 Descending FAA TRACON SMA TRACON (SMA)
Sat 02:05:58 PM 32.4928 -96.5747 315° West 374 430 12,200 -2,222 Descending FAA TRACON SMA TRACON (SMA)
Sat 02:06:39 PM 32.5408 -96.6319 314° West 351 404 11,100 -900 Descending FAA TRACON SMA TRACON (SMA)
Sat 02:07:18 PM 32.5861 -96.6883 314° West 339 390 11,000 -75 Descending FAA TRACON SMA TRACON (SMA)
Sat 02:07:59 PM 32.6319 -96.7439 314° West 341 392 11,000  Level FAA TRACON SMA TRACON (SMA)
Sat 02:08:39 PM 32.6733 -96.7944 315° West 346 398 11,000  Level FAA TRACON SMA TRACON (SMA)
Sat 02:09:19 PM 32.7153 -96.8450 316° Northwest 303 349 11,000  Level FAA TRACON SMA TRACON (SMA)
Sat 02:09:59 PM 32.7472 -96.8817 344° North 258 297 11,000 -72 Level FAA TRACON SMA TRACON (SMA)
Sat 02:10:42 PM 32.7978 -96.8989 358° North 264 304 10,900 -825 Descending FAA TRACON SMA TRACON (SMA)
Sat 02:11:19 PM 32.8392 -96.9006 North 259 298 9,900 -1,737 Descending FAA TRACON SMA TRACON (SMA)
Sat 02:11:58 PM 32.8883 -96.9000 357° North 263 303 8,700 -1,800 Descending FAA TRACON SMA TRACON (SMA)
Sat 02:12:39 PM 32.9372 -96.9033 360° North 253 291 7,500 -1,575 Descending FAA TRACON SMA TRACON (SMA)
Sat 02:13:18 PM 32.9800 -96.9036 358° North 245 282 6,600 -1,308 Descending FAA TRACON SMA TRACON (SMA)
Sat 02:13:57 PM 33.0275 -96.9053 350° North 245 282 5,800 -1,519 Descending FAA TRACON SMA TRACON (SMA)
Sat 02:14:37 PM 33.0717 -96.9147 282° West 243 280 4,600 -1,333 Descending FAA TRACON SMA TRACON (SMA)
Sat 02:15:18 PM 33.0797 -96.9617 282° West 232 267 4,000 -878 Descending FAA TRACON SMA TRACON (SMA)

Login

Don't have an account? Register now (free) for customized features, flight alerts, and more!